sensor_id;sensor_type;location;lat;lon;timestamp;pressure;altitude;pressure_sealevel;temperature;humidity
16030;BME280;34770;49.272;11.070;2022-07-06T00:01:09;98085.59;;;16.46;63.20
16030;BME280;34770;49.272;11.070;2022-07-06T00:03:35;98092.00;;;16.46;64.21
16030;BME280;34770;49.272;11.070;2022-07-06T00:06:00;98099.09;;;16.33;64.24
16030;BME280;34770;49.272;11.070;2022-07-06T00:08:26;98093.88;;;16.31;64.99
16030;BME280;34770;49.272;11.070;2022-07-06T00:10:51;98089.53;;;16.37;64.43
16030;BME280;34770;49.272;11.070;2022-07-06T00:13:17;98092.31;;;16.37;64.60
16030;BME280;34770;49.272;11.070;2022-07-06T00:15:42;98095.09;;;16.34;64.86
16030;BME280;34770;49.272;11.070;2022-07-06T00:18:08;98091.16;;;16.42;64.80
16030;BME280;34770;49.272;11.070;2022-07-06T00:20:33;98100.06;;;16.48;65.02
16030;BME280;34770;49.272;11.070;2022-07-06T00:22:58;98100.81;;;16.45;64.76
16030;BME280;34770;49.272;11.070;2022-07-06T00:25:24;98112.00;;;16.37;64.16
16030;BME280;34770;49.272;11.070;2022-07-06T00:27:49;98106.38;;;16.37;64.18
16030;BME280;34770;49.272;11.070;2022-07-06T00:30:14;98100.22;;;16.24;65.26
16030;BME280;34770;49.272;11.070;2022-07-06T00:32:40;98099.34;;;16.17;65.51
16030;BME280;34770;49.272;11.070;2022-07-06T00:35:06;98106.78;;;15.98;66.73
16030;BME280;34770;49.272;11.070;2022-07-06T00:37:31;98103.97;;;15.98;66.88
16030;BME280;34770;49.272;11.070;2022-07-06T00:39:57;98093.09;;;15.97;67.00
16030;BME280;34770;49.272;11.070;2022-07-06T00:42:22;98086.50;;;15.82;67.33
16030;BME280;34770;49.272;11.070;2022-07-06T00:44:49;98105.50;;;15.92;67.50
16030;BME280;34770;49.272;11.070;2022-07-06T00:47:15;98107.09;;;15.93;67.69
16030;BME280;34770;49.272;11.070;2022-07-06T00:49:40;98097.41;;;15.87;67.50
16030;BME280;34770;49.272;11.070;2022-07-06T00:52:24;98103.06;;;15.90;67.95
16030;BME280;34770;49.272;11.070;2022-07-06T00:54:50;98100.88;;;15.76;68.37
16030;BME280;34770;49.272;11.070;2022-07-06T00:57:16;98109.50;;;15.60;69.48
16030;BME280;34770;49.272;11.070;2022-07-06T00:59:42;98106.38;;;15.66;69.08
16030;BME280;34770;49.272;11.070;2022-07-06T01:02:08;98104.66;;;15.57;69.43
16030;BME280;34770;49.272;11.070;2022-07-06T01:04:33;98097.81;;;15.55;69.49
16030;BME280;34770;49.272;11.070;2022-07-06T01:06:58;98099.34;;;15.48;70.21
16030;BME280;34770;49.272;11.070;2022-07-06T01:09:24;98107.31;;;15.46;70.23
16030;BME280;34770;49.272;11.070;2022-07-06T01:11:50;98096.41;;;15.38;70.39
16030;BME280;34770;49.272;11.070;2022-07-06T01:14:16;98095.31;;;15.46;70.62
16030;BME280;34770;49.272;11.070;2022-07-06T01:16:43;98101.28;;;15.44;70.44
16030;BME280;34770;49.272;11.070;2022-07-06T01:19:08;98085.88;;;15.31;70.59
16030;BME280;34770;49.272;11.070;2022-07-06T01:21:35;98109.03;;;15.24;71.83
16030;BME280;34770;49.272;11.070;2022-07-06T01:24:02;98109.66;;;15.14;72.26
16030;BME280;34770;49.272;11.070;2022-07-06T01:26:28;98103.38;;;15.21;72.00
16030;BME280;34770;49.272;11.070;2022-07-06T01:28:53;98101.22;;;15.10;72.35
16030;BME280;34770;49.272;11.070;2022-07-06T01:31:25;98111.25;;;15.11;72.22
16030;BME280;34770;49.272;11.070;2022-07-06T01:33:53;98106.41;;;15.08;72.93
16030;BME280;34770;49.272;11.070;2022-07-06T01:36:19;98074.75;;;14.81;72.45
16030;BME280;34770;49.272;11.070;2022-07-06T01:38:53;98093.31;;;14.89;72.55
16030;BME280;34770;49.272;11.070;2022-07-06T01:41:20;98117.84;;;14.73;73.56
16030;BME280;34770;49.272;11.070;2022-07-06T01:43:46;98096.16;;;14.66;73.60
16030;BME280;34770;49.272;11.070;2022-07-06T01:46:12;98114.69;;;14.74;73.30
16030;BME280;34770;49.272;11.070;2022-07-06T01:48:38;98115.38;;;14.67;73.34
16030;BME280;34770;49.272;11.070;2022-07-06T01:51:04;98120.75;;;14.57;74.66
16030;BME280;34770;49.272;11.070;2022-07-06T01:53:30;98115.94;;;14.54;74.63
16030;BME280;34770;49.272;11.070;2022-07-06T01:55:56;98113.41;;;14.48;74.51
16030;BME280;34770;49.272;11.070;2022-07-06T01:58:22;98095.19;;;14.35;75.15
16030;BME280;34770;49.272;11.070;2022-07-06T02:00:47;98115.09;;;14.53;75.00
16030;BME280;34770;49.272;11.070;2022-07-06T02:03:13;98108.13;;;14.43;75.49
16030;BME280;34770;49.272;11.070;2022-07-06T02:05:38;98116.66;;;14.50;75.04
16030;BME280;34770;49.272;11.070;2022-07-06T02:08:04;98111.53;;;14.33;75.27
16030;BME280;34770;49.272;11.070;2022-07-06T02:10:29;98125.97;;;14.35;74.88
16030;BME280;34770;49.272;11.070;2022-07-06T02:12:54;98121.88;;;14.29;75.81
16030;BME280;34770;49.272;11.070;2022-07-06T02:15:20;98111.19;;;14.34;75.59
16030;BME280;34770;49.272;11.070;2022-07-06T02:17:45;98107.94;;;14.32;74.95
16030;BME280;34770;49.272;11.070;2022-07-06T02:20:11;98110.88;;;14.40;75.07
16030;BME280;34770;49.272;11.070;2022-07-06T02:22:36;98100.97;;;14.23;75.52
16030;BME280;34770;49.272;11.070;2022-07-06T02:25:02;98101.22;;;14.37;74.77
16030;BME280;34770;49.272;11.070;2022-07-06T02:27:27;98106.84;;;14.37;75.00
16030;BME280;34770;49.272;11.070;2022-07-06T02:29:53;98079.25;;;14.16;75.35
16030;BME280;34770;49.272;11.070;2022-07-06T02:32:18;98109.63;;;14.37;75.29
16030;BME280;34770;49.272;11.070;2022-07-06T02:34:44;98120.31;;;14.31;75.71
16030;BME280;34770;49.272;11.070;2022-07-06T02:37:09;98093.63;;;14.14;75.28
16030;BME280;34770;49.272;11.070;2022-07-06T02:39:35;98117.53;;;14.31;75.27
16030;BME280;34770;49.272;11.070;2022-07-06T02:42:00;98115.75;;;14.23;75.42
16030;BME280;34770;49.272;11.070;2022-07-06T02:44:26;98108.50;;;14.18;75.57
16030;BME280;34770;49.272;11.070;2022-07-06T02:46:51;98115.28;;;14.17;75.80
16030;BME280;34770;49.272;11.070;2022-07-06T02:49:16;98121.75;;;14.22;75.59
16030;BME280;34770;49.272;11.070;2022-07-06T02:51:42;98118.94;;;14.22;76.00
16030;BME280;34770;49.272;11.070;2022-07-06T02:54:07;98115.56;;;14.12;76.70
16030;BME280;34770;49.272;11.070;2022-07-06T02:56:33;98118.81;;;14.14;75.98
16030;BME280;34770;49.272;11.070;2022-07-06T02:58:58;98122.06;;;14.16;76.38
16030;BME280;34770;49.272;11.070;2022-07-06T03:01:23;98130.09;;;13.98;77.34
16030;BME280;34770;49.272;11.070;2022-07-06T03:03:49;98126.28;;;14.07;77.55
16030;BME280;34770;49.272;11.070;2022-07-06T03:06:14;98131.13;;;14.10;77.20
16030;BME280;34770;49.272;11.070;2022-07-06T03:08:40;98127.53;;;14.09;76.84
16030;BME280;34770;49.272;11.070;2022-07-06T03:11:05;98111.38;;;14.02;76.52
16030;BME280;34770;49.272;11.070;2022-07-06T03:13:31;98127.69;;;13.97;78.06
16030;BME280;34770;49.272;11.070;2022-07-06T03:15:56;98138.44;;;13.95;78.85
16030;BME280;34770;49.272;11.070;2022-07-06T03:18:22;98142.47;;;13.97;78.95
16030;BME280;34770;49.272;11.070;2022-07-06T03:20:48;98100.63;;;13.62;78.94
16030;BME280;34770;49.272;11.070;2022-07-06T03:23:13;98134.91;;;13.98;79.34
16030;BME280;34770;49.272;11.070;2022-07-06T03:25:39;98150.50;;;13.99;79.24
16030;BME280;34770;49.272;11.070;2022-07-06T03:28:04;98126.72;;;13.89;79.48
16030;BME280;34770;49.272;11.070;2022-07-06T03:30:30;98136.56;;;14.02;79.61
16030;BME280;34770;49.272;11.070;2022-07-06T03:32:55;98129.72;;;14.00;78.77
16030;BME280;34770;49.272;11.070;2022-07-06T03:35:21;98091.09;;;13.86;78.55
16030;BME280;34770;49.272;11.070;2022-07-06T03:37:46;98123.72;;;13.98;79.04
16030;BME280;34770;49.272;11.070;2022-07-06T03:40:12;98140.88;;;13.77;80.01
16030;BME280;34770;49.272;11.070;2022-07-06T03:42:37;98145.50;;;13.88;80.73
16030;BME280;34770;49.272;11.070;2022-07-06T03:45:04;98142.63;;;14.04;79.69
16030;BME280;34770;49.272;11.070;2022-07-06T03:47:30;98105.38;;;13.81;79.68
16030;BME280;34770;49.272;11.070;2022-07-06T03:49:55;98148.03;;;14.17;79.70
16030;BME280;34770;49.272;11.070;2022-07-06T03:52:21;98119.88;;;13.86;79.66
16030;BME280;34770;49.272;11.070;2022-07-06T03:54:46;98119.75;;;13.60;80.65
16030;BME280;34770;49.272;11.070;2022-07-06T03:57:12;98156.69;;;14.08;80.12
16030;BME280;34770;49.272;11.070;2022-07-06T03:59:39;98158.50;;;14.20;79.91
16030;BME280;34770;49.272;11.070;2022-07-06T04:02:05;98158.28;;;14.29;79.95
16030;BME280;34770;49.272;11.070;2022-07-06T04:04:30;98150.63;;;14.26;80.08
16030;BME280;34770;49.272;11.070;2022-07-06T04:06:56;98153.31;;;14.42;79.89
16030;BME280;34770;49.272;11.070;2022-07-06T04:09:21;98158.66;;;14.50;79.25
16030;BME280;34770;49.272;11.070;2022-07-06T04:11:47;98166.38;;;14.57;78.69
16030;BME280;34770;49.272;11.070;2022-07-06T04:14:12;98166.38;;;14.57;79.43
16030;BME280;34770;49.272;11.070;2022-07-06T04:16:38;98168.34;;;14.76;79.57
16030;BME280;34770;49.272;11.070;2022-07-06T04:19:03;98127.13;;;14.54;79.60
16030;BME280;34770;49.272;11.070;2022-07-06T04:21:28;98173.69;;;14.85;78.66
16030;BME280;34770;49.272;11.070;2022-07-06T04:23:54;98171.25;;;14.83;78.68
16030;BME280;34770;49.272;11.070;2022-07-06T04:26:19;98161.94;;;14.76;79.18
16030;BME280;34770;49.272;11.070;2022-07-06T04:28:45;98170.03;;;14.81;79.78
16030;BME280;34770;49.272;11.070;2022-07-06T04:31:10;98167.16;;;14.77;80.61
16030;BME280;34770;49.272;11.070;2022-07-06T04:33:36;98187.88;;;14.96;80.25
16030;BME280;34770;49.272;11.070;2022-07-06T04:36:01;98172.31;;;14.98;80.35
16030;BME280;34770;49.272;11.070;2022-07-06T04:38:27;98175.19;;;15.02;79.12
16030;BME280;34770;49.272;11.070;2022-07-06T04:40:52;98185.69;;;15.09;79.00
16030;BME280;34770;49.272;11.070;2022-07-06T04:43:18;98189.00;;;15.14;79.82
16030;BME280;34770;49.272;11.070;2022-07-06T04:45:43;98184.41;;;15.29;79.44
16030;BME280;34770;49.272;11.070;2022-07-06T04:48:09;98198.81;;;15.55;78.81
16030;BME280;34770;49.272;11.070;2022-07-06T04:50:34;98200.19;;;15.68;78.83
16030;BME280;34770;49.272;11.070;2022-07-06T04:53:00;98198.13;;;15.92;77.98
16030;BME280;34770;49.272;11.070;2022-07-06T04:55:25;98200.75;;;16.08;78.01
16030;BME280;34770;49.272;11.070;2022-07-06T04:57:51;98165.81;;;16.05;76.78
16030;BME280;34770;49.272;11.070;2022-07-06T05:00:17;98202.75;;;16.45;75.15
16030;BME280;34770;49.272;11.070;2022-07-06T05:02:43;98194.88;;;16.58;75.26
16030;BME280;34770;49.272;11.070;2022-07-06T05:05:08;98208.19;;;16.65;75.05
16030;BME280;34770;49.272;11.070;2022-07-06T05:07:37;98214.38;;;16.85;74.84
16030;BME280;34770;49.272;11.070;2022-07-06T05:10:06;98204.00;;;16.89;75.55
16030;BME280;34770;49.272;11.070;2022-07-06T05:12:32;98203.66;;;16.94;74.59
16030;BME280;34770;49.272;11.070;2022-07-06T05:14:58;98201.44;;;17.14;74.91
16030;BME280;34770;49.272;11.070;2022-07-06T05:17:24;98203.50;;;17.25;74.55
16030;BME280;34770;49.272;11.070;2022-07-06T05:19:49;98213.25;;;17.38;73.69
16030;BME280;34770;49.272;11.070;2022-07-06T05:22:15;98216.94;;;17.49;73.72
16030;BME280;34770;49.272;11.070;2022-07-06T05:24:40;98179.00;;;17.29;72.82
16030;BME280;34770;49.272;11.070;2022-07-06T05:27:05;98185.00;;;17.23;68.49
16030;BME280;34770;49.272;11.070;2022-07-06T05:29:31;98203.75;;;17.57;70.15
16030;BME280;34770;49.272;11.070;2022-07-06T05:31:56;98210.16;;;17.58;65.46
16030;BME280;34770;49.272;11.070;2022-07-06T05:34:22;98216.56;;;17.51;65.92
16030;BME280;34770;49.272;11.070;2022-07-06T05:36:47;98174.22;;;17.29;67.46
16030;BME280;34770;49.272;11.070;2022-07-06T05:39:12;98217.41;;;17.59;64.41
16030;BME280;34770;49.272;11.070;2022-07-06T05:41:38;98213.28;;;17.42;65.21
16030;BME280;34770;49.272;11.070;2022-07-06T05:44:03;98225.56;;;17.78;69.03
16030;BME280;34770;49.272;11.070;2022-07-06T05:46:29;98228.16;;;17.46;64.30
16030;BME280;34770;49.272;11.070;2022-07-06T05:48:54;98229.50;;;17.63;66.77
16030;BME280;34770;49.272;11.070;2022-07-06T05:51:38;98217.84;;;17.61;66.30
16030;BME280;34770;49.272;11.070;2022-07-06T05:54:04;98226.31;;;17.68;67.09
16030;BME280;34770;49.272;11.070;2022-07-06T05:56:29;98218.34;;;17.81;62.93
16030;BME280;34770;49.272;11.070;2022-07-06T05:58:55;98222.25;;;17.58;66.65
16030;BME280;34770;49.272;11.070;2022-07-06T06:01:20;98229.94;;;17.68;65.80
16030;BME280;34770;49.272;11.070;2022-07-06T06:03:45;98192.34;;;17.35;67.67
16030;BME280;34770;49.272;11.070;2022-07-06T06:06:11;98230.38;;;17.74;65.56
16030;BME280;34770;49.272;11.070;2022-07-06T06:08:36;98215.94;;;17.83;64.93
16030;BME280;34770;49.272;11.070;2022-07-06T06:11:02;98228.09;;;17.98;63.75
16030;BME280;34770;49.272;11.070;2022-07-06T06:13:27;98226.47;;;17.93;64.05
16030;BME280;34770;49.272;11.070;2022-07-06T06:15:53;98235.09;;;18.22;63.09
16030;BME280;34770;49.272;11.070;2022-07-06T06:18:18;98239.41;;;18.05;62.95
16030;BME280;34770;49.272;11.070;2022-07-06T06:20:45;98242.03;;;18.57;60.77
16030;BME280;34770;49.272;11.070;2022-07-06T06:23:10;98234.09;;;19.03;59.72
16030;BME280;34770;49.272;11.070;2022-07-06T06:25:37;98229.25;;;19.28;58.59
16030;BME280;34770;49.272;11.070;2022-07-06T06:28:05;98233.28;;;19.56;58.10
16030;BME280;34770;49.272;11.070;2022-07-06T06:30:31;98225.66;;;19.17;58.62
16030;BME280;34770;49.272;11.070;2022-07-06T06:35:32;98232.50;;;19.23;58.57
16030;BME280;34770;49.272;11.070;2022-07-06T06:37:57;98222.41;;;19.26;57.41
16030;BME280;34770;49.272;11.070;2022-07-06T06:40:23;98238.50;;;19.61;56.67
16030;BME280;34770;49.272;11.070;2022-07-06T06:42:48;98214.72;;;19.63;55.57
16030;BME280;34770;49.272;11.070;2022-07-06T06:45:14;98230.00;;;19.72;55.61
16030;BME280;34770;49.272;11.070;2022-07-06T06:47:39;98195.34;;;19.72;54.99
16030;BME280;34770;49.272;11.070;2022-07-06T06:50:05;98222.81;;;19.46;55.08
16030;BME280;34770;49.272;11.070;2022-07-06T06:52:30;98221.22;;;19.23;56.00
16030;BME280;34770;49.272;11.070;2022-07-06T06:54:56;98222.75;;;19.82;54.57
16030;BME280;34770;49.272;11.070;2022-07-06T06:57:21;98217.91;;;19.75;54.26
16030;BME280;34770;49.272;11.070;2022-07-06T06:59:47;98225.91;;;20.13;53.78
16030;BME280;34770;49.272;11.070;2022-07-06T07:02:12;98229.03;;;20.40;52.25
16030;BME280;34770;49.272;11.070;2022-07-06T07:04:38;98226.97;;;20.48;50.97
16030;BME280;34770;49.272;11.070;2022-07-06T07:07:03;98225.13;;;20.09;53.21
16030;BME280;34770;49.272;11.070;2022-07-06T07:09:29;98234.78;;;20.15;54.67
16030;BME280;34770;49.272;11.070;2022-07-06T07:11:54;98210.63;;;20.00;51.68
16030;BME280;34770;49.272;11.070;2022-07-06T07:14:20;98225.03;;;20.31;51.85
16030;BME280;34770;49.272;11.070;2022-07-06T07:16:45;98220.50;;;20.51;50.14
16030;BME280;34770;49.272;11.070;2022-07-06T07:19:11;98230.41;;;20.85;49.43
16030;BME280;34770;49.272;11.070;2022-07-06T07:21:36;98224.84;;;20.67;49.82
16030;BME280;34770;49.272;11.070;2022-07-06T07:24:02;98224.19;;;21.08;49.76
16030;BME280;34770;49.272;11.070;2022-07-06T07:26:28;98225.00;;;21.58;49.11
16030;BME280;34770;49.272;11.070;2022-07-06T07:28:53;98219.41;;;21.47;47.91
16030;BME280;34770;49.272;11.070;2022-07-06T07:31:18;98220.16;;;21.55;48.55
16030;BME280;34770;49.272;11.070;2022-07-06T07:33:44;98211.03;;;21.81;47.47
16030;BME280;34770;49.272;11.070;2022-07-06T07:36:09;98209.28;;;22.26;46.40
16030;BME280;34770;49.272;11.070;2022-07-06T07:38:35;98216.25;;;22.21;46.71
16030;BME280;34770;49.272;11.070;2022-07-06T07:41:00;98223.59;;;22.15;46.24
16030;BME280;34770;49.272;11.070;2022-07-06T07:43:25;98222.78;;;20.78;48.76
16030;BME280;34770;49.272;11.070;2022-07-06T07:45:51;98201.81;;;20.72;50.04
16030;BME280;34770;49.272;11.070;2022-07-06T07:48:17;98235.94;;;21.03;49.76
16030;BME280;34770;49.272;11.070;2022-07-06T07:50:42;98229.59;;;20.88;50.50
16030;BME280;34770;49.272;11.070;2022-07-06T07:53:08;98186.69;;;20.97;48.91
16030;BME280;34770;49.272;11.070;2022-07-06T07:55:33;98229.56;;;21.44;49.20
16030;BME280;34770;49.272;11.070;2022-07-06T07:57:59;98227.88;;;21.96;48.25
16030;BME280;34770;49.272;11.070;2022-07-06T08:00:24;98222.81;;;21.76;47.65
16030;BME280;34770;49.272;11.070;2022-07-06T08:02:50;98220.91;;;22.35;46.71
16030;BME280;34770;49.272;11.070;2022-07-06T08:05:16;98227.63;;;22.79;47.20
16030;BME280;34770;49.272;11.070;2022-07-06T08:07:42;98213.31;;;23.14;44.51
16030;BME280;34770;49.272;11.070;2022-07-06T08:10:08;98218.81;;;22.08;46.45
16030;BME280;34770;49.272;11.070;2022-07-06T08:12:33;98224.56;;;22.01;47.02
16030;BME280;34770;49.272;11.070;2022-07-06T08:14:59;98216.81;;;22.05;46.93
16030;BME280;34770;49.272;11.070;2022-07-06T08:17:24;98223.88;;;22.59;45.68
16030;BME280;34770;49.272;11.070;2022-07-06T08:19:50;98209.69;;;22.24;46.44
16030;BME280;34770;49.272;11.070;2022-07-06T08:22:15;98215.94;;;21.74;46.29
16030;BME280;34770;49.272;11.070;2022-07-06T08:24:41;98226.69;;;21.93;46.21
16030;BME280;34770;49.272;11.070;2022-07-06T08:27:06;98224.81;;;22.79;44.21
16030;BME280;34770;49.272;11.070;2022-07-06T08:29:32;98231.25;;;22.18;45.17
16030;BME280;34770;49.272;11.070;2022-07-06T08:31:57;98219.91;;;22.53;43.44
16030;BME280;34770;49.272;11.070;2022-07-06T08:34:23;98182.13;;;22.87;43.65
16030;BME280;34770;49.272;11.070;2022-07-06T08:36:49;98228.94;;;23.53;43.84
16030;BME280;34770;49.272;11.070;2022-07-06T08:39:14;98223.97;;;22.52;44.02
16030;BME280;34770;49.272;11.070;2022-07-06T08:41:41;98183.41;;;22.55;44.81
16030;BME280;34770;49.272;11.070;2022-07-06T08:44:09;98226.75;;;23.85;42.41
16030;BME280;34770;49.272;11.070;2022-07-06T08:46:35;98225.72;;;23.00;42.63
16030;BME280;34770;49.272;11.070;2022-07-06T08:49:03;98225.91;;;23.40;44.47
16030;BME280;34770;49.272;11.070;2022-07-06T08:51:30;98232.34;;;23.88;40.99
16030;BME280;34770;49.272;11.070;2022-07-06T08:53:55;98232.19;;;24.19;40.04
16030;BME280;34770;49.272;11.070;2022-07-06T08:56:22;98228.44;;;24.63;39.58
16030;BME280;34770;49.272;11.070;2022-07-06T08:58:48;98221.66;;;23.96;40.07
16030;BME280;34770;49.272;11.070;2022-07-06T09:01:14;98225.97;;;23.61;40.14
16030;BME280;34770;49.272;11.070;2022-07-06T09:03:41;98215.78;;;23.63;39.68
16030;BME280;34770;49.272;11.070;2022-07-06T09:06:07;98231.16;;;24.30;39.69
16030;BME280;34770;49.272;11.070;2022-07-06T09:08:33;98209.06;;;23.73;40.41
16030;BME280;34770;49.272;11.070;2022-07-06T09:11:01;98229.34;;;23.52;40.48
16030;BME280;34770;49.272;11.070;2022-07-06T09:13:27;98226.94;;;23.26;41.75
16030;BME280;34770;49.272;11.070;2022-07-06T09:15:52;98227.44;;;24.13;40.34
16030;BME280;34770;49.272;11.070;2022-07-06T09:18:21;98219.00;;;24.09;39.63
16030;BME280;34770;49.272;11.070;2022-07-06T09:20:46;98208.34;;;24.13;39.34
16030;BME280;34770;49.272;11.070;2022-07-06T09:23:15;98211.41;;;24.02;40.21
16030;BME280;34770;49.272;11.070;2022-07-06T09:25:41;98210.03;;;23.67;40.94
16030;BME280;34770;49.272;11.070;2022-07-06T09:28:07;98177.59;;;23.64;40.33
16030;BME280;34770;49.272;11.070;2022-07-06T09:30:33;98208.47;;;23.62;40.66
16030;BME280;34770;49.272;11.070;2022-07-06T09:32:58;98208.31;;;24.53;39.11
16030;BME280;34770;49.272;11.070;2022-07-06T09:35:30;98222.16;;;23.91;39.98
16030;BME280;34770;49.272;11.070;2022-07-06T09:38:03;98224.53;;;23.49;40.60
16030;BME280;34770;49.272;11.070;2022-07-06T09:40:34;98219.28;;;22.96;40.31
16030;BME280;34770;49.272;11.070;2022-07-06T09:43:11;98223.78;;;22.93;40.12
16030;BME280;34770;49.272;11.070;2022-07-06T09:45:38;98225.28;;;23.29;40.21
16030;BME280;34770;49.272;11.070;2022-07-06T09:48:14;98222.03;;;24.18;38.52
16030;BME280;34770;49.272;11.070;2022-07-06T09:50:46;98225.03;;;24.31;37.76
16030;BME280;34770;49.272;11.070;2022-07-06T09:53:12;98196.00;;;24.40;39.67
16030;BME280;34770;49.272;11.070;2022-07-06T09:55:38;98224.94;;;24.55;38.38
16030;BME280;34770;49.272;11.070;2022-07-06T09:58:07;98242.16;;;24.68;38.54
16030;BME280;34770;49.272;11.070;2022-07-06T10:00:33;98238.53;;;24.27;37.46
16030;BME280;34770;49.272;11.070;2022-07-06T10:03:00;98224.56;;;25.10;36.62
16030;BME280;34770;49.272;11.070;2022-07-06T10:05:26;98228.19;;;25.10;36.87
16030;BME280;34770;49.272;11.070;2022-07-06T10:08:00;98227.75;;;25.12;36.38
16030;BME280;34770;49.272;11.070;2022-07-06T10:10:28;98221.19;;;25.94;35.50
16030;BME280;34770;49.272;11.070;2022-07-06T10:12:56;98213.06;;;25.13;37.67
16030;BME280;34770;49.272;11.070;2022-07-06T10:15:29;98227.53;;;25.39;37.66
16030;BME280;34770;49.272;11.070;2022-07-06T10:17:59;98221.72;;;25.43;36.72
16030;BME280;34770;49.272;11.070;2022-07-06T10:20:28;98230.59;;;25.12;36.05
16030;BME280;34770;49.272;11.070;2022-07-06T10:22:58;98224.44;;;25.30;36.01
16030;BME280;34770;49.272;11.070;2022-07-06T10:25:25;98224.88;;;25.12;37.51
16030;BME280;34770;49.272;11.070;2022-07-06T10:27:52;98225.63;;;24.02;38.98
16030;BME280;34770;49.272;11.070;2022-07-06T10:30:18;98222.03;;;23.74;38.87
16030;BME280;34770;49.272;11.070;2022-07-06T10:32:45;98234.09;;;24.26;38.10
16030;BME280;34770;49.272;11.070;2022-07-06T10:35:13;98220.81;;;25.13;37.28
16030;BME280;34770;49.272;11.070;2022-07-06T10:37:39;98219.38;;;25.21;36.86
16030;BME280;34770;49.272;11.070;2022-07-06T10:40:05;98233.00;;;25.13;36.98
16030;BME280;34770;49.272;11.070;2022-07-06T10:42:56;98230.91;;;24.61;37.04
16030;BME280;34770;49.272;11.070;2022-07-06T10:50:41;98238.75;;;23.49;39.16
16030;BME280;34770;49.272;11.070;2022-07-06T10:53:27;98229.19;;;24.67;37.68
16030;BME280;34770;49.272;11.070;2022-07-06T10:55:56;98233.88;;;25.10;35.22
16030;BME280;34770;49.272;11.070;2022-07-06T10:58:48;98225.59;;;24.83;36.82
16030;BME280;34770;49.272;11.070;2022-07-06T11:01:16;98221.72;;;25.43;35.25
16030;BME280;34770;49.272;11.070;2022-07-06T11:03:49;98232.84;;;25.21;36.46
16030;BME280;34770;49.272;11.070;2022-07-06T11:06:24;98233.56;;;24.11;37.60
16030;BME280;34770;49.272;11.070;2022-07-06T11:14:13;98228.97;;;24.37;38.21
16030;BME280;34770;49.272;11.070;2022-07-06T11:19:21;98220.03;;;25.45;35.85
16030;BME280;34770;49.272;11.070;2022-07-06T11:24:29;98223.66;;;25.29;36.41
16030;BME280;34770;49.272;11.070;2022-07-06T11:26:56;98230.00;;;25.21;36.59
16030;BME280;34770;49.272;11.070;2022-07-06T11:29:24;98231.25;;;26.15;35.21
16030;BME280;34770;49.272;11.070;2022-07-06T11:31:52;98215.34;;;26.43;34.94
16030;BME280;34770;49.272;11.070;2022-07-06T11:34:29;98218.19;;;25.85;34.48
16030;BME280;34770;49.272;11.070;2022-07-06T11:36:56;98221.09;;;25.19;35.32
16030;BME280;34770;49.272;11.070;2022-07-06T11:39:22;98212.97;;;26.12;35.59
16030;BME280;34770;49.272;11.070;2022-07-06T11:41:47;98215.19;;;26.21;34.79
16030;BME280;34770;49.272;11.070;2022-07-06T11:44:13;98214.94;;;25.99;34.36
16030;BME280;34770;49.272;11.070;2022-07-06T11:46:38;98196.13;;;25.72;35.00
16030;BME280;34770;49.272;11.070;2022-07-06T11:49:08;98201.13;;;26.14;35.21
16030;BME280;34770;49.272;11.070;2022-07-06T11:51:37;98180.50;;;26.23;35.40
16030;BME280;34770;49.272;11.070;2022-07-06T11:54:17;98205.84;;;26.47;34.93
16030;BME280;34770;49.272;11.070;2022-07-06T11:56:54;98169.50;;;25.79;35.29
16030;BME280;34770;49.272;11.070;2022-07-06T11:59:25;98206.00;;;26.43;33.78
16030;BME280;34770;49.272;11.070;2022-07-06T12:02:04;98146.31;;;25.14;35.61
16030;BME280;34770;49.272;11.070;2022-07-06T12:04:35;98215.44;;;25.81;35.55
16030;BME280;34770;49.272;11.070;2022-07-06T12:07:03;98195.94;;;25.79;35.25
16030;BME280;34770;49.272;11.070;2022-07-06T12:09:30;98168.03;;;26.17;34.59
16030;BME280;34770;49.272;11.070;2022-07-06T12:11:56;98197.91;;;25.83;35.16
16030;BME280;34770;49.272;11.070;2022-07-06T12:14:21;98200.16;;;26.47;34.72
16030;BME280;34770;49.272;11.070;2022-07-06T12:16:49;98184.94;;;27.05;32.99
16030;BME280;34770;49.272;11.070;2022-07-06T12:19:15;98204.78;;;25.19;36.19
16030;BME280;34770;49.272;11.070;2022-07-06T12:21:49;98191.88;;;25.31;36.13
16030;BME280;34770;49.272;11.070;2022-07-06T12:24:20;98183.47;;;26.03;35.68
16030;BME280;34770;49.272;11.070;2022-07-06T12:26:46;98174.44;;;25.91;35.13
16030;BME280;34770;49.272;11.070;2022-07-06T12:29:13;98186.81;;;25.39;35.76
16030;BME280;34770;49.272;11.070;2022-07-06T12:31:55;98163.94;;;25.26;36.05
16030;BME280;34770;49.272;11.070;2022-07-06T12:34:26;98148.09;;;25.87;34.96
16030;BME280;34770;49.272;11.070;2022-07-06T12:36:54;98145.00;;;26.37;33.43
16030;BME280;34770;49.272;11.070;2022-07-06T12:39:22;98145.16;;;26.72;33.40
16030;BME280;34770;49.272;11.070;2022-07-06T12:42:12;98156.59;;;26.59;33.12
16030;BME280;34770;49.272;11.070;2022-07-06T12:44:43;98160.38;;;25.84;33.97
16030;BME280;34770;49.272;11.070;2022-07-06T12:47:10;98158.75;;;26.42;33.12
16030;BME280;34770;49.272;11.070;2022-07-06T12:49:37;98173.69;;;27.36;33.09
16030;BME280;34770;49.272;11.070;2022-07-06T12:54:33;98149.97;;;25.31;34.70
16030;BME280;34770;49.272;11.070;2022-07-06T12:57:13;98172.50;;;25.26;35.88
16030;BME280;34770;49.272;11.070;2022-07-06T12:59:48;98136.03;;;26.38;34.05
16030;BME280;34770;49.272;11.070;2022-07-06T13:02:34;98138.16;;;27.25;33.01
16030;BME280;34770;49.272;11.070;2022-07-06T13:07:32;98155.91;;;28.65;31.40
16030;BME280;34770;49.272;11.070;2022-07-06T13:10:02;98154.09;;;28.18;31.25
16030;BME280;34770;49.272;11.070;2022-07-06T13:12:27;98132.16;;;26.97;32.72